Time;durP1;ratioP1;P1;durP2;ratioP2;P2;SDS_P1;SDS_P2;PMS_P1;PMS_P2;Temp;Humidity;BMP_temperature;BMP_pressure;BME280_temperature;BME280_humidity;BME280_pressure;Samples;Min_cycle;Max_cycle;Signal;HPM_P1;HPM_P2
2022/09/26 00:01:47;;;;;;;4.50;4.10;;;;;;;;;;5096300;28;20569;-70
2022/09/26 00:04:21;;;;;;;4.97;4.38;;;;;;;;;;5096134;28;20511;-70
2022/09/26 00:06:48;;;;;;;6.50;4.80;;;;;;;;;;5096167;28;20215;-69
2022/09/26 00:09:16;;;;;;;5.80;4.77;;;;;;;;;;5095697;28;20539;-70
2022/09/26 00:11:44;;;;;;;9.53;4.40;;;;;;;;;;5096074;28;20443;-69
2022/09/26 00:14:14;;;;;;;6.03;4.23;;;;;;;;;;5095995;28;20800;-69
2022/09/26 00:16:41;;;;;;;8.02;5.03;;;;;;;;;;5096286;28;20919;-70
2022/09/26 00:19:08;;;;;;;6.82;4.80;;;;;;;;;;5096066;28;20491;-69
2022/09/26 00:21:37;;;;;;;7.47;5.40;;;;;;;;;;5095799;28;20543;-69
2022/09/26 00:24:05;;;;;;;6.10;5.60;;;;;;;;;;5096186;28;20792;-70
2022/09/26 00:26:34;;;;;;;5.90;5.10;;;;;;;;;;5095848;28;20446;-70
2022/09/26 00:29:03;;;;;;;4.95;4.53;;;;;;;;;;5095255;28;20486;-70
2022/09/26 00:31:31;;;;;;;5.87;4.23;;;;;;;;;;5095482;28;20208;-70
2022/09/26 00:33:59;;;;;;;6.93;4.40;;;;;;;;;;5095295;28;20459;-69
2022/09/26 00:36:27;;;;;;;8.47;4.63;;;;;;;;;;5095402;28;20446;-68
2022/09/26 00:38:55;;;;;;;6.63;4.53;;;;;;;;;;5095302;28;20454;-69
2022/09/26 00:41:23;;;;;;;6.00;4.70;;;;;;;;;;5095556;28;20819;-70
2022/09/26 00:43:51;;;;;;;5.35;4.15;;;;;;;;;;5095497;28;20656;-69
2022/09/26 00:46:23;;;;;;;6.57;4.33;;;;;;;;;;5095429;28;20197;-70
2022/09/26 00:48:53;;;;;;;5.50;5.00;;;;;;;;;;5096091;28;20519;-70
2022/09/26 00:51:20;;;;;;;6.72;5.20;;;;;;;;;;5095699;28;20196;-70
2022/09/26 00:53:48;;;;;;;5.73;4.90;;;;;;;;;;5095014;28;20197;-69
2022/09/26 00:56:19;;;;;;;5.60;5.10;;;;;;;;;;5095460;28;20522;-70
2022/09/26 00:58:48;;;;;;;5.20;4.70;;;;;;;;;;5095321;28;20227;-69
2022/09/26 01:01:15;;;;;;;8.60;5.10;;;;;;;;;;5095058;28;20480;-70
2022/09/26 01:03:43;;;;;;;7.90;5.50;;;;;;;;;;5095190;28;20439;-69
2022/09/26 01:06:10;;;;;;;5.93;5.32;;;;;;;;;;5095055;28;20435;-70
2022/09/26 01:08:40;;;;;;;8.07;5.55;;;;;;;;;;5095159;28;20197;-70
2022/09/26 01:11:08;;;;;;;6.38;5.75;;;;;;;;;;5094974;28;20193;-70
2022/09/26 01:13:37;;;;;;;7.40;6.07;;;;;;;;;;5095743;28;20665;-70
2022/09/26 01:16:05;;;;;;;5.93;5.30;;;;;;;;;;5094551;28;20484;-70
2022/09/26 01:18:32;;;;;;;6.77;5.40;;;;;;;;;;5094472;28;20193;-69
2022/09/26 01:21:04;;;;;;;9.17;6.20;;;;;;;;;;5094756;28;20439;-70
2022/09/26 01:23:52;;;;;;;8.90;6.00;;;;;;;;;;5094776;28;20473;-70
2022/09/26 01:26:27;;;;;;;8.53;5.70;;;;;;;;;;5094303;28;20970;-70
2022/09/26 01:29:05;;;;;;;8.27;7.03;;;;;;;;;;5094693;28;20475;-69
2022/09/26 01:31:40;;;;;;;8.83;6.20;;;;;;;;;;5094668;28;20430;-70
2022/09/26 01:34:11;;;;;;;7.10;6.50;;;;;;;;;;5094689;28;20437;-70
2022/09/26 01:36:59;;;;;;;9.80;6.90;;;;;;;;;;5095204;28;20453;-71
2022/09/26 01:39:42;;;;;;;6.97;6.27;;;;;;;;;;5094933;28;20222;-70
2022/09/26 01:42:12;;;;;;;9.90;6.82;;;;;;;;;;5094077;28;20466;-70
2022/09/26 01:44:42;;;;;;;6.77;5.77;;;;;;;;;;5094146;28;20177;-70
2022/09/26 01:47:14;;;;;;;8.67;6.97;;;;;;;;;;5093953;28;20452;-70
2022/09/26 01:49:45;;;;;;;10.43;6.60;;;;;;;;;;5093882;28;20438;-69
2022/09/26 01:52:18;;;;;;;10.20;7.28;;;;;;;;;;5094620;28;20190;-70
2022/09/26 01:54:47;;;;;;;8.20;6.13;;;;;;;;;;5094391;28;20265;-70
2022/09/26 01:57:16;;;;;;;10.85;7.00;;;;;;;;;;5093764;28;20936;-70
2022/09/26 01:59:47;;;;;;;7.63;6.40;;;;;;;;;;5093900;28;20193;-69
2022/09/26 02:02:19;;;;;;;8.52;7.43;;;;;;;;;;5094219;28;20575;-71
2022/09/26 02:04:49;;;;;;;11.77;8.10;;;;;;;;;;5093928;28;20180;-70
2022/09/26 02:07:19;;;;;;;8.32;7.32;;;;;;;;;;5093992;28;20284;-70
2022/09/26 02:09:48;;;;;;;8.30;7.40;;;;;;;;;;5094052;28;20280;-70
2022/09/26 02:12:18;;;;;;;11.07;8.63;;;;;;;;;;5093375;28;20440;-70
2022/09/26 02:14:48;;;;;;;9.88;7.75;;;;;;;;;;5093343;28;20423;-69
2022/09/26 02:17:21;;;;;;;8.53;7.63;;;;;;;;;;5093845;28;20211;-70
2022/09/26 02:19:51;;;;;;;9.20;8.00;;;;;;;;;;5093381;28;20428;-69
2022/09/26 02:22:19;;;;;;;12.23;6.97;;;;;;;;;;5093293;28;20464;-70
2022/09/26 02:24:46;;;;;;;10.13;9.10;;;;;;;;;;5093534;28;20447;-71
2022/09/26 02:27:13;;;;;;;12.17;7.77;;;;;;;;;;5093250;28;20440;-70
2022/09/26 02:29:40;;;;;;;12.40;7.63;;;;;;;;;;5093096;28;20443;-71
2022/09/26 02:32:11;;;;;;;9.90;7.83;;;;;;;;;;5093455;28;20465;-71
2022/09/26 02:34:41;;;;;;;9.47;8.03;;;;;;;;;;5093976;28;20921;-69
2022/09/26 02:37:09;;;;;;;10.00;7.73;;;;;;;;;;5092985;28;20873;-70
2022/09/26 02:39:37;;;;;;;9.90;8.13;;;;;;;;;;5093443;28;20441;-70
2022/09/26 02:42:10;;;;;;;9.75;7.68;;;;;;;;;;5093201;28;20490;-71
2022/09/26 02:44:49;;;;;;;7.60;6.65;;;;;;;;;;5093564;28;20201;-70
2022/09/26 02:47:34;;;;;;;10.03;7.40;;;;;;;;;;5093286;28;20553;-71
2022/09/26 02:50:26;;;;;;;8.30;6.30;;;;;;;;;;5093277;28;20727;-70
2022/09/26 02:52:59;;;;;;;10.05;7.80;;;;;;;;;;5093263;28;20442;-69
2022/09/26 02:55:31;;;;;;;13.20;7.22;;;;;;;;;;5093877;28;20199;-69
2022/09/26 02:58:06;;;;;;;10.57;7.80;;;;;;;;;;5092987;28;20193;-70
2022/09/26 03:00:39;;;;;;;7.27;6.50;;;;;;;;;;5093057;28;20427;-71
2022/09/26 03:03:08;;;;;;;8.27;6.90;;;;;;;;;;5092789;28;20460;-70
2022/09/26 03:05:39;;;;;;;12.17;7.13;;;;;;;;;;5092820;28;20245;-70
2022/09/26 03:08:09;;;;;;;7.93;6.37;;;;;;;;;;5093589;28;20432;-70
2022/09/26 03:10:37;;;;;;;9.90;7.35;;;;;;;;;;5093046;28;20428;-69
2022/09/26 03:13:07;;;;;;;9.90;7.33;;;;;;;;;;5092625;28;20211;-70
2022/09/26 03:15:35;;;;;;;8.47;7.03;;;;;;;;;;5093395;28;20445;-69
2022/09/26 03:18:04;;;;;;;14.27;8.63;;;;;;;;;;5092626;28;20526;-70
2022/09/26 03:20:31;;;;;;;11.33;7.53;;;;;;;;;;5092843;28;20199;-70
2022/09/26 03:23:00;;;;;;;8.47;7.40;;;;;;;;;;5092742;28;20474;-70
2022/09/26 03:25:28;;;;;;;9.33;7.30;;;;;;;;;;5095300;28;20442;-70
2022/09/26 03:27:57;;;;;;;12.13;7.53;;;;;;;;;;5096558;28;20801;-70
2022/09/26 03:30:24;;;;;;;13.10;7.77;;;;;;;;;;5096571;28;20242;-71
2022/09/26 03:32:51;;;;;;;12.77;7.72;;;;;;;;;;5096553;28;20447;-70
2022/09/26 03:35:19;;;;;;;11.00;7.60;;;;;;;;;;5096537;28;20204;-70
2022/09/26 03:37:47;;;;;;;8.18;7.28;;;;;;;;;;5096346;28;20200;-70
2022/09/26 03:40:15;;;;;;;11.43;7.47;;;;;;;;;;5096493;28;20197;-70
2022/09/26 03:42:42;;;;;;;10.20;7.10;;;;;;;;;;5096466;28;20475;-70
2022/09/26 03:45:10;;;;;;;10.60;7.97;;;;;;;;;;5096578;28;20525;-77
2022/09/26 03:47:38;;;;;;;8.40;7.33;;;;;;;;;;5096709;28;20447;-70
2022/09/26 03:50:06;;;;;;;8.83;7.80;;;;;;;;;;5096951;28;20439;-69
2022/09/26 03:52:35;;;;;;;10.73;7.77;;;;;;;;;;5096612;28;20535;-70
2022/09/26 03:55:02;;;;;;;15.90;7.63;;;;;;;;;;5096538;28;20443;-70
2022/09/26 03:57:31;;;;;;;11.90;8.88;;;;;;;;;;5095854;28;20465;-69
2022/09/26 03:59:58;;;;;;;9.53;7.47;;;;;;;;;;5096431;28;20201;-69
2022/09/26 04:02:25;;;;;;;9.75;8.57;;;;;;;;;;5094060;28;20995;-69
2022/09/26 04:04:52;;;;;;;8.67;7.87;;;;;;;;;;5095203;28;20557;-69
2022/09/26 04:07:19;;;;;;;12.97;8.27;;;;;;;;;;5095456;28;20483;-69
2022/09/26 04:09:46;;;;;;;11.50;8.50;;;;;;;;;;5095422;28;20445;-69
2022/09/26 04:12:14;;;;;;;12.40;8.40;;;;;;;;;;5095231;28;20444;-70
2022/09/26 04:14:43;;;;;;;10.60;8.10;;;;;;;;;;5095820;28;20435;-69
2022/09/26 04:17:10;;;;;;;12.00;8.63;;;;;;;;;;5095540;28;20444;-69
2022/09/26 04:19:38;;;;;;;15.60;8.40;;;;;;;;;;5095348;28;20450;-70
2022/09/26 04:22:06;;;;;;;9.93;8.33;;;;;;;;;;5095853;28;20189;-69
2022/09/26 04:24:34;;;;;;;12.43;8.87;;;;;;;;;;5095503;28;20568;-69
2022/09/26 04:27:01;;;;;;;13.67;8.70;;;;;;;;;;5095653;28;20443;-70
2022/09/26 04:29:29;;;;;;;10.80;8.70;;;;;;;;;;5095595;28;20517;-69
2022/09/26 04:31:57;;;;;;;9.20;8.20;;;;;;;;;;5087070;28;20444;-69
2022/09/26 04:34:24;;;;;;;13.60;9.00;;;;;;;;;;5075035;28;20440;-69
2022/09/26 04:36:52;;;;;;;10.55;9.50;;;;;;;;;;5074719;28;20198;-69
2022/09/26 04:39:19;;;;;;;11.45;9.63;;;;;;;;;;5075031;28;20198;-70
2022/09/26 04:41:46;;;;;;;14.30;9.73;;;;;;;;;;5074803;28;20647;-69
2022/09/26 04:44:14;;;;;;;13.10;9.02;;;;;;;;;;5075139;28;20821;-69
2022/09/26 04:46:41;;;;;;;14.87;9.27;;;;;;;;;;5074868;28;20635;-69
2022/09/26 04:49:11;;;;;;;11.23;8.20;;;;;;;;;;5074681;28;20925;-69
2022/09/26 04:51:38;;;;;;;13.30;9.63;;;;;;;;;;5074952;28;20861;-69
2022/09/26 04:54:05;;;;;;;11.80;9.07;;;;;;;;;;5075003;28;20445;-69
2022/09/26 04:56:33;;;;;;;13.70;9.13;;;;;;;;;;5075478;28;20204;-67
2022/09/26 04:59:01;;;;;;;14.93;10.90;;;;;;;;;;5074505;28;20200;-69
2022/09/26 05:01:28;;;;;;;12.60;9.43;;;;;;;;;;5074857;28;20829;-67
2022/09/26 05:03:56;;;;;;;13.87;9.40;;;;;;;;;;5074794;28;20479;-68
2022/09/26 05:06:25;;;;;;;11.60;9.87;;;;;;;;;;5074450;28;20444;-68
2022/09/26 05:08:52;;;;;;;11.20;9.63;;;;;;;;;;5074735;28;20914;-68
2022/09/26 05:11:20;;;;;;;13.53;9.20;;;;;;;;;;5074637;28;20540;-68
2022/09/26 05:13:50;;;;;;;12.88;9.85;;;;;;;;;;5074106;28;20949;-69
2022/09/26 05:16:18;;;;;;;15.50;9.00;;;;;;;;;;5074805;28;20190;-69
2022/09/26 05:18:46;;;;;;;16.20;10.50;;;;;;;;;;5073827;28;20441;-68
2022/09/26 05:21:13;;;;;;;12.18;9.57;;;;;;;;;;5074872;28;20206;-68
2022/09/26 05:26:27;;;;;;;13.90;10.50;;;;;;;;;;5074274;28;20488;-67
2022/09/26 05:28:55;;;;;;;13.27;11.32;;;;;;;;;;5074089;28;20476;-66
2022/09/26 05:31:25;;;;;;;18.10;10.60;;;;;;;;;;5074285;28;20217;-66
2022/09/26 05:33:52;;;;;;;11.97;10.27;;;;;;;;;;5074182;28;20459;-66
2022/09/26 05:36:19;;;;;;;14.90;9.63;;;;;;;;;;5074246;28;20509;-67
2022/09/26 05:38:48;;;;;;;16.03;10.10;;;;;;;;;;5074149;28;20194;-67
2022/09/26 05:41:15;;;;;;;12.30;10.33;;;;;;;;;;5074129;28;20441;-67
2022/09/26 05:43:42;;;;;;;14.10;9.90;;;;;;;;;;5073586;28;20464;-66
2022/09/26 05:46:10;;;;;;;19.35;10.07;;;;;;;;;;5073710;28;20436;-67
2022/09/26 05:48:38;;;;;;;16.80;12.30;;;;;;;;;;5073044;28;20204;-67
2022/09/26 05:51:08;;;;;;;16.10;10.40;;;;;;;;;;5073997;28;20441;-67
2022/09/26 05:53:36;;;;;;;15.00;10.05;;;;;;;;;;5074303;28;20511;-66
2022/09/26 05:56:05;;;;;;;16.93;10.80;;;;;;;;;;5074010;28;20281;-67
2022/09/26 05:58:33;;;;;;;14.70;10.13;;;;;;;;;;5073655;28;20455;-67
2022/09/26 06:01:04;;;;;;;14.93;10.40;;;;;;;;;;5073393;28;20539;-68
2022/09/26 06:03:33;;;;;;;14.23;9.00;;;;;;;;;;5073662;28;20218;-67
2022/09/26 06:06:04;;;;;;;12.23;10.37;;;;;;;;;;5073360;28;20960;-67
2022/09/26 06:08:31;;;;;;;13.90;9.43;;;;;;;;;;5073530;28;20428;-67
2022/09/26 06:10:59;;;;;;;13.93;10.50;;;;;;;;;;5073624;28;20439;-68
2022/09/26 06:13:28;;;;;;;11.57;9.53;;;;;;;;;;5073126;28;20446;-67
2022/09/26 06:15:56;;;;;;;11.02;8.90;;;;;;;;;;5073469;28;20449;-67
2022/09/26 06:18:23;;;;;;;10.80;8.80;;;;;;;;;;5073037;28;20251;-67
2022/09/26 06:20:50;;;;;;;15.07;9.20;;;;;;;;;;5073773;28;20913;-67
2022/09/26 06:23:17;;;;;;;12.33;9.53;;;;;;;;;;5072819;28;20994;-67
2022/09/26 06:25:44;;;;;;;10.73;9.07;;;;;;;;;;5073280;28;20454;-67
2022/09/26 06:28:12;;;;;;;10.13;8.63;;;;;;;;;;5073037;28;20478;-67
2022/09/26 06:30:40;;;;;;;16.00;9.43;;;;;;;;;;5073114;28;20449;-67
2022/09/26 06:33:07;;;;;;;10.63;8.30;;;;;;;;;;5073186;28;20440;-67
2022/09/26 06:35:34;;;;;;;11.23;9.10;;;;;;;;;;5073063;28;20850;-67
2022/09/26 06:38:04;;;;;;;10.38;8.43;;;;;;;;;;5073252;28;20474;-67
2022/09/26 06:40:32;;;;;;;12.73;8.53;;;;;;;;;;5073074;28;20194;-67
2022/09/26 06:42:59;;;;;;;11.27;8.20;;;;;;;;;;5072922;28;20479;-67
2022/09/26 06:45:27;;;;;;;10.50;8.15;;;;;;;;;;5072684;28;20468;-67
2022/09/26 06:47:55;;;;;;;11.38;8.85;;;;;;;;;;5073235;28;20532;-67
2022/09/26 06:50:23;;;;;;;12.88;8.60;;;;;;;;;;5072787;28;20212;-67
2022/09/26 06:52:50;;;;;;;11.73;8.00;;;;;;;;;;5072914;28;20223;-68
2022/09/26 06:55:17;;;;;;;14.03;8.30;;;;;;;;;;5072795;28;20205;-67
2022/09/26 06:57:44;;;;;;;11.73;7.90;;;;;;;;;;5072932;28;20445;-68
2022/09/26 07:00:13;;;;;;;13.53;9.10;;;;;;;;;;5072624;28;20444;-68
2022/09/26 07:02:50;;;;;;;13.97;8.90;;;;;;;;;;5072573;28;20448;-68
2022/09/26 07:05:18;;;;;;;18.00;9.13;;;;;;;;;;5072455;28;20465;-68
2022/09/26 07:07:47;;;;;;;9.67;7.53;;;;;;;;;;5072593;28;20436;-68
2022/09/26 07:10:15;;;;;;;8.93;7.70;;;;;;;;;;5072753;28;20444;-68
2022/09/26 07:12:43;;;;;;;9.73;8.10;;;;;;;;;;5072439;28;20449;-68
2022/09/26 07:15:12;;;;;;;8.43;7.23;;;;;;;;;;5072648;28;20462;-68
2022/09/26 07:17:39;;;;;;;14.33;8.10;;;;;;;;;;5072617;28;20444;-68
2022/09/26 07:20:07;;;;;;;11.37;7.33;;;;;;;;;;5072464;28;20451;-68
2022/09/26 07:22:36;;;;;;;11.20;7.57;;;;;;;;;;5072796;28;20452;-68
2022/09/26 07:25:03;;;;;;;9.40;7.37;;;;;;;;;;5072467;28;20468;-68
2022/09/26 07:27:31;;;;;;;14.33;7.60;;;;;;;;;;5072281;28;20450;-68
2022/09/26 07:29:58;;;;;;;9.30;7.60;;;;;;;;;;5072792;28;20778;-68
2022/09/26 07:32:25;;;;;;;10.50;6.57;;;;;;;;;;5072648;28;20444;-68
2022/09/26 07:34:53;;;;;;;14.37;7.27;;;;;;;;;;5072795;28;20448;-68
2022/09/26 07:37:21;;;;;;;9.60;7.57;;;;;;;;;;5072763;28;20455;-68
2022/09/26 07:39:49;;;;;;;8.30;6.80;;;;;;;;;;5072078;28;20445;-68
2022/09/26 07:42:17;;;;;;;10.00;6.30;;;;;;;;;;5072405;28;20451;-68
2022/09/26 07:44:44;;;;;;;10.40;5.87;;;;;;;;;;5072274;28;20888;-68
2022/09/26 07:50:13;;;;;;;10.70;6.53;;;;;;;;;;5072267;28;20437;-68
2022/09/26 07:52:41;;;;;;;11.03;5.87;;;;;;;;;;5072426;28;20491;-68
2022/09/26 07:55:10;;;;;;;10.63;5.97;;;;;;;;;;5072029;28;20922;-69
2022/09/26 07:57:37;;;;;;;9.97;5.30;;;;;;;;;;5072239;28;20447;-68
2022/09/26 08:00:06;;;;;;;10.23;6.07;;;;;;;;;;5072009;28;20441;-68
2022/09/26 08:02:34;;;;;;;10.50;5.37;;;;;;;;;;5071924;28;20510;-68
2022/09/26 08:05:03;;;;;;;9.87;5.17;;;;;;;;;;5071810;28;20482;-68
2022/09/26 08:07:31;;;;;;;10.80;5.73;;;;;;;;;;5072122;28;20884;-68
2022/09/26 08:10:00;;;;;;;8.20;4.83;;;;;;;;;;5072149;28;20442;-68
2022/09/26 08:12:29;;;;;;;5.87;4.63;;;;;;;;;;5075763;28;20489;-68
2022/09/26 08:14:56;;;;;;;6.70;3.83;;;;;;;;;;5075778;28;20547;-68
2022/09/26 08:17:24;;;;;;;9.07;5.57;;;;;;;;;;5075132;28;20528;-68
2022/09/26 08:19:51;;;;;;;7.73;4.80;;;;;;;;;;5075375;28;20451;-68
2022/09/26 08:22:18;;;;;;;6.17;4.10;;;;;;;;;;5075532;28;20463;-68
2022/09/26 08:24:48;;;;;;;10.63;4.63;;;;;;;;;;5075479;28;20570;-68
2022/09/26 08:27:15;;;;;;;7.57;4.13;;;;;;;;;;5075395;28;20429;-68
2022/09/26 08:29:48;;;;;;;6.33;4.47;;;;;;;;;;5075848;28;20472;-68
2022/09/26 08:32:15;;;;;;;11.13;5.90;;;;;;;;;;5075796;28;20433;-68
2022/09/26 08:34:43;;;;;;;5.37;4.87;;;;;;;;;;5075551;28;20442;-68
2022/09/26 08:37:10;;;;;;;7.10;4.50;;;;;;;;;;5075216;28;20467;-68
2022/09/26 08:39:38;;;;;;;7.03;3.80;;;;;;;;;;5075044;28;20459;-68
2022/09/26 08:42:27;;;;;;;7.90;4.80;;;;;;;;;;5074927;28;20471;-68
2022/09/26 08:45:11;;;;;;;6.10;3.90;;;;;;;;;;5075858;28;20501;-68
2022/09/26 08:47:43;;;;;;;15.17;4.90;;;;;;;;;;5075148;28;20919;-68
2022/09/26 08:50:14;;;;;;;9.23;5.63;;;;;;;;;;5074828;28;20467;-67
2022/09/26 08:52:43;;;;;;;4.27;3.87;;;;;;;;;;5075730;28;20487;-68
2022/09/26 08:55:14;;;;;;;6.23;4.70;;;;;;;;;;5075201;28;20547;-67
2022/09/26 08:57:42;;;;;;;6.20;4.47;;;;;;;;;;5074784;28;20455;-67
2022/09/26 09:00:18;;;;;;;6.97;4.80;;;;;;;;;;5075011;28;20451;-68
2022/09/26 09:02:49;;;;;;;5.47;4.73;;;;;;;;;;5075233;28;20904;-67
2022/09/26 09:05:18;;;;;;;6.77;4.20;;;;;;;;;;5074555;28;20468;-68
2022/09/26 09:07:49;;;;;;;8.17;4.40;;;;;;;;;;5074791;28;20541;-67
2022/09/26 09:10:17;;;;;;;10.00;5.23;;;;;;;;;;5074539;28;20445;-67
2022/09/26 09:12:51;;;;;;;7.70;5.07;;;;;;;;;;5074411;28;20447;-67
2022/09/26 09:15:24;;;;;;;12.03;6.17;;;;;;;;;;5075013;28;20467;-67
2022/09/26 09:17:55;;;;;;;5.00;4.40;;;;;;;;;;5074934;28;20445;-67
2022/09/26 09:20:29;;;;;;;8.33;5.63;;;;;;;;;;5074869;28;20451;-67
2022/09/26 09:23:04;;;;;;;7.47;4.73;;;;;;;;;;5073129;28;20425;-68
2022/09/26 09:25:32;;;;;;;7.20;4.40;;;;;;;;;;5074533;28;20468;-67
2022/09/26 09:28:11;;;;;;;6.30;4.47;;;;;;;;;;5074771;28;20545;-68
2022/09/26 09:30:42;;;;;;;13.30;4.87;;;;;;;;;;5074475;28;20503;-68
2022/09/26 09:33:11;;;;;;;6.07;4.30;;;;;;;;;;5074449;28;20445;-68
2022/09/26 09:35:43;;;;;;;5.30;4.10;;;;;;;;;;5074015;28;20451;-68
2022/09/26 09:38:14;;;;;;;4.70;4.00;;;;;;;;;;5074757;28;20443;-69
2022/09/26 09:40:43;;;;;;;4.97;4.00;;;;;;;;;;5074811;28;20508;-69
2022/09/26 09:43:14;;;;;;;8.20;4.50;;;;;;;;;;5073841;28;20436;-69
2022/09/26 09:45:44;;;;;;;4.50;3.80;;;;;;;;;;5073761;28;20481;-68
2022/09/26 09:48:12;;;;;;;4.57;4.10;;;;;;;;;;5074260;28;20442;-67
2022/09/26 09:50:42;;;;;;;6.03;3.97;;;;;;;;;;5074166;28;20444;-68
2022/09/26 09:53:17;;;;;;;6.73;4.03;;;;;;;;;;5073684;28;20480;-67
2022/09/26 09:55:50;;;;;;;7.87;4.17;;;;;;;;;;5073556;28;20827;-68
2022/09/26 09:58:25;;;;;;;7.00;3.97;;;;;;;;;;5073452;28;20448;-68
2022/09/26 10:00:59;;;;;;;4.33;3.50;;;;;;;;;;5073943;28;20933;-68
2022/09/26 10:03:28;;;;;;;10.73;4.83;;;;;;;;;;5073892;28;20429;-68
2022/09/26 10:05:57;;;;;;;7.37;4.30;;;;;;;;;;5073339;28;20530;-68
2022/09/26 10:08:30;;;;;;;5.20;4.70;;;;;;;;;;5073621;28;20440;-68
2022/09/26 10:11:02;;;;;;;8.07;4.90;;;;;;;;;;5073695;28;20434;-68
2022/09/26 10:13:31;;;;;;;5.83;4.50;;;;;;;;;;5073569;28;20439;-68
2022/09/26 10:16:02;;;;;;;5.13;4.17;;;;;;;;;;5073483;28;20451;-68
2022/09/26 10:18:30;;;;;;;4.97;3.93;;;;;;;;;;5073456;28;20528;-68
2022/09/26 10:20:58;;;;;;;7.30;4.67;;;;;;;;;;5073582;28;20441;-68
2022/09/26 10:23:28;;;;;;;6.93;4.30;;;;;;;;;;5073268;28;20442;-68
2022/09/26 10:25:59;;;;;;;6.50;4.10;;;;;;;;;;5072904;28;20469;-68
2022/09/26 10:28:34;;;;;;;5.80;4.93;;;;;;;;;;5073114;28;20538;-68
2022/09/26 10:31:06;;;;;;;6.23;5.23;;;;;;;;;;5073602;28;20918;-68
2022/09/26 10:33:34;;;;;;;7.93;4.67;;;;;;;;;;5072488;28;20444;-68
2022/09/26 10:36:07;;;;;;;7.00;4.80;;;;;;;;;;5072916;28;20442;-68
2022/09/26 10:40:44;;;;;;;6.53;5.00;;;;;;;;;;5073079;28;20441;-67
2022/09/26 10:41:24;;;;;;;7.03;4.43;;;;;;;;;;5072844;28;20417;-67
2022/09/26 10:43:56;;;;;;;4.93;4.50;;;;;;;;;;5073007;28;20440;-67
2022/09/26 10:46:25;;;;;;;9.30;5.33;;;;;;;;;;5072489;28;20913;-67
2022/09/26 10:48:54;;;;;;;7.40;4.40;;;;;;;;;;5072909;28;20543;-68
2022/09/26 10:51:23;;;;;;;5.03;4.53;;;;;;;;;;5073244;28;20440;-68
2022/09/26 10:53:52;;;;;;;12.37;7.57;;;;;;;;;;5072576;28;20441;-68
2022/09/26 10:56:25;;;;;;;7.10;5.80;;;;;;;;;;5073366;28;20442;-68
2022/09/26 10:58:56;;;;;;;5.80;5.27;;;;;;;;;;5072939;28;20508;-67
2022/09/26 11:01:26;;;;;;;6.20;4.70;;;;;;;;;;5072620;28;20924;-68
2022/09/26 11:03:54;;;;;;;4.87;4.40;;;;;;;;;;5072468;28;20798;-67
2022/09/26 11:06:22;;;;;;;12.47;4.63;;;;;;;;;;5072687;28;20482;-67
2022/09/26 11:08:50;;;;;;;5.77;4.50;;;;;;;;;;5072619;28;20432;-67
2022/09/26 11:11:20;;;;;;;9.93;5.23;;;;;;;;;;5072652;28;20931;-67
2022/09/26 11:13:48;;;;;;;11.53;5.77;;;;;;;;;;5072386;28;20447;-68
2022/09/26 11:16:19;;;;;;;9.10;4.93;;;;;;;;;;5072370;28;20440;-67
2022/09/26 11:18:52;;;;;;;6.70;4.40;;;;;;;;;;5073161;28;20436;-67
2022/09/26 11:21:23;;;;;;;6.67;4.60;;;;;;;;;;5073140;28;20437;-67
2022/09/26 11:23:54;;;;;;;7.43;5.00;;;;;;;;;;5072301;28;20460;-68
2022/09/26 11:26:24;;;;;;;10.53;5.40;;;;;;;;;;5072525;28;20468;-68
2022/09/26 11:28:54;;;;;;;7.07;5.10;;;;;;;;;;5072569;28;20484;-67
2022/09/26 11:31:26;;;;;;;5.33;4.80;;;;;;;;;;5072515;28;21037;-67
2022/09/26 11:33:57;;;;;;;6.37;5.00;;;;;;;;;;5072562;28;20450;-67
2022/09/26 11:36:34;;;;;;;4.90;4.50;;;;;;;;;;5072675;28;20432;-67
2022/09/26 11:39:07;;;;;;;6.67;5.17;;;;;;;;;;5072453;28;20439;-67
2022/09/26 11:41:40;;;;;;;5.50;4.13;;;;;;;;;;5072645;28;20519;-67
2022/09/26 11:44:26;;;;;;;6.70;4.70;;;;;;;;;;5072633;28;20520;-68
2022/09/26 11:47:03;;;;;;;6.67;5.00;;;;;;;;;;5074674;28;20484;-67
2022/09/26 11:49:44;;;;;;;5.03;4.17;;;;;;;;;;5076396;28;20526;-67
2022/09/26 11:52:21;;;;;;;6.47;4.33;;;;;;;;;;5076158;28;20440;-67
2022/09/26 11:54:57;;;;;;;6.60;4.40;;;;;;;;;;5075875;28;20904;-68
2022/09/26 11:57:39;;;;;;;3.97;3.57;;;;;;;;;;5075961;28;20442;-68
2022/09/26 12:00:14;;;;;;;4.10;3.70;;;;;;;;;;5076170;28;20425;-68
2022/09/26 12:02:53;;;;;;;5.83;4.23;;;;;;;;;;5076172;28;20911;-66
2022/09/26 12:05:24;;;;;;;6.07;3.97;;;;;;;;;;5076452;28;20469;-67
2022/09/26 12:07:57;;;;;;;7.30;3.53;;;;;;;;;;5076165;28;20461;-66
2022/09/26 12:10:29;;;;;;;5.00;3.90;;;;;;;;;;5076247;28;20931;-67
2022/09/26 12:13:04;;;;;;;9.53;3.40;;;;;;;;;;5075975;28;20429;-67
2022/09/26 12:15:34;;;;;;;3.80;3.23;;;;;;;;;;5076138;28;20452;-67
2022/09/26 12:18:07;;;;;;;7.10;3.97;;;;;;;;;;5075979;28;20436;-67
2022/09/26 12:20:38;;;;;;;5.20;4.67;;;;;;;;;;5075879;28;20433;-67
2022/09/26 12:23:15;;;;;;;5.30;3.80;;;;;;;;;;5075939;28;20426;-68
2022/09/26 12:25:50;;;;;;;10.17;5.30;;;;;;;;;;5076121;28;20469;-68
2022/09/26 12:28:26;;;;;;;6.80;4.93;;;;;;;;;;5075213;28;20479;-67
2022/09/26 12:30:59;;;;;;;3.90;3.13;;;;;;;;;;5075383;28;20428;-68
2022/09/26 12:33:34;;;;;;;5.30;2.90;;;;;;;;;;5075690;28;20531;-68
2022/09/26 12:36:08;;;;;;;6.40;2.73;;;;;;;;;;5075887;28;20448;-68
2022/09/26 12:38:56;;;;;;;4.27;3.10;;;;;;;;;;5075571;28;20433;-68
2022/09/26 12:41:47;;;;;;;4.97;3.27;;;;;;;;;;5067807;28;20492;-69
2022/09/26 12:44:21;;;;;;;4.27;2.77;;;;;;;;;;5075132;28;20437;-68
2022/09/26 12:47:07;;;;;;;3.27;2.97;;;;;;;;;;5076176;28;20496;-68
2022/09/26 12:49:41;;;;;;;11.07;3.70;;;;;;;;;;5075170;28;20430;-68
2022/09/26 12:52:16;;;;;;;5.00;3.63;;;;;;;;;;5074916;28;20990;-68
2022/09/26 12:54:53;;;;;;;4.50;3.20;;;;;;;;;;5074901;28;20475;-68
2022/09/26 12:57:25;;;;;;;13.53;2.87;;;;;;;;;;5074381;28;20928;-66
2022/09/26 13:00:07;;;;;;;6.63;2.70;;;;;;;;;;5074638;28;20430;-69
2022/09/26 13:02:49;;;;;;;5.63;2.87;;;;;;;;;;5075983;28;20536;-70
2022/09/26 13:05:35;;;;;;;3.50;2.70;;;;;;;;;;5074780;28;20436;-70
2022/09/26 13:08:07;;;;;;;6.43;3.27;;;;;;;;;;5059690;28;20514;-69
2022/09/26 13:10:49;;;;;;;2.63;2.40;;;;;;;;;;5074797;28;20827;-70
2022/09/26 13:13:35;;;;;;;4.60;3.00;;;;;;;;;;5074765;28;20433;-69
2022/09/26 13:16:12;;;;;;;5.90;3.50;;;;;;;;;;5074796;28;20437;-70
2022/09/26 13:18:43;;;;;;;7.10;3.13;;;;;;;;;;5074252;28;20432;-69
2022/09/26 13:21:13;;;;;;;3.43;3.00;;;;;;;;;;5074269;28;20980;-69
2022/09/26 13:23:44;;;;;;;4.33;2.70;;;;;;;;;;5074500;28;20947;-69
2022/09/26 13:26:14;;;;;;;4.00;2.60;;;;;;;;;;5074246;28;20500;-69
2022/09/26 13:28:44;;;;;;;4.13;2.70;;;;;;;;;;5074193;28;20469;-68
2022/09/26 13:31:15;;;;;;;7.50;3.43;;;;;;;;;;5074192;28;20429;-69
2022/09/26 13:33:45;;;;;;;4.07;3.03;;;;;;;;;;5074309;28;20433;-68
2022/09/26 13:36:13;;;;;;;5.00;2.90;;;;;;;;;;5090753;28;20820;-68
2022/09/26 13:38:46;;;;;;;3.57;3.27;;;;;;;;;;5093853;28;20444;-68
2022/09/26 13:41:26;;;;;;;4.40;2.90;;;;;;;;;;5093989;28;20424;-69
2022/09/26 13:44:02;;;;;;;3.20;2.90;;;;;;;;;;5094138;28;20424;-67
2022/09/26 13:46:36;;;;;;;3.50;2.70;;;;;;;;;;5093012;28;20815;-68
2022/09/26 13:49:14;;;;;;;2.83;2.63;;;;;;;;;;5093344;28;20482;-66
2022/09/26 13:51:45;;;;;;;2.83;2.63;;;;;;;;;;5094004;28;20430;-70
2022/09/26 13:54:18;;;;;;;3.87;3.30;;;;;;;;;;5093743;28;20523;-69
2022/09/26 13:56:49;;;;;;;3.90;3.13;;;;;;;;;;5094011;28;20436;-70
2022/09/26 13:59:27;;;;;;;6.87;3.00;;;;;;;;;;5094025;28;20510;-71
2022/09/26 14:02:14;;;;;;;4.10;2.43;;;;;;;;;;5093852;28;20508;-71
2022/09/26 14:04:42;;;;;;;4.80;3.60;;;;;;;;;;5093802;28;20448;-71
2022/09/26 14:10:13;;;;;;;3.80;3.13;;;;;;;;;;5092881;28;20395;-69
2022/09/26 14:12:55;;;;;;;3.90;3.50;;;;;;;;;;5093794;28;20535;-71
2022/09/26 14:15:24;;;;;;;4.20;3.63;;;;;;;;;;5093735;28;20449;-70
2022/09/26 14:18:00;;;;;;;3.70;3.03;;;;;;;;;;5093862;28;20448;-70
2022/09/26 14:20:30;;;;;;;6.73;3.97;;;;;;;;;;5093497;28;20425;-71
2022/09/26 14:22:58;;;;;;;5.53;4.10;;;;;;;;;;5093284;28;20434;-71
2022/09/26 14:25:43;;;;;;;5.47;3.27;;;;;;;;;;5093583;28;20577;-71
2022/09/26 14:28:21;;;;;;;7.27;3.30;;;;;;;;;;5092857;28;21003;-70
2022/09/26 14:31:03;;;;;;;3.73;3.10;;;;;;;;;;5093433;28;20424;-70
2022/09/26 14:33:32;;;;;;;5.73;3.40;;;;;;;;;;5092925;28;20444;-70
2022/09/26 14:36:14;;;;;;;5.70;2.83;;;;;;;;;;5093174;28;20930;-71
2022/09/26 14:38:41;;;;;;;5.83;3.10;;;;;;;;;;5093379;28;20440;-71
2022/09/26 14:41:17;;;;;;;3.27;2.97;;;;;;;;;;5093331;28;20440;-70
2022/09/26 14:43:46;;;;;;;5.00;3.27;;;;;;;;;;5092990;28;20438;-70
2022/09/26 14:46:17;;;;;;;3.40;3.17;;;;;;;;;;5092691;28;20977;-72
2022/09/26 14:48:45;;;;;;;7.33;3.90;;;;;;;;;;5092921;28;20456;-69
2022/09/26 14:51:26;;;;;;;3.10;2.90;;;;;;;;;;5093062;28;20450;-69
2022/09/26 15:30:23;;;;;;;6.50;4.47;;;;;;;;;;5130839;27;20314;-66
2022/09/26 15:32:50;;;;;;;11.90;5.30;;;;;;;;;;5129870;27;20426;-67
2022/09/26 15:35:18;;;;;;;7.10;6.20;;;;;;;;;;5131237;27;20498;-67
2022/09/26 15:37:45;;;;;;;7.30;6.33;;;;;;;;;;5130730;27;20960;-65
2022/09/26 15:40:13;;;;;;;9.13;5.07;;;;;;;;;;5131003;27;20841;-67
2022/09/26 15:42:59;;;;;;;6.90;5.13;;;;;;;;;;5130923;27;20434;-66
2022/09/26 15:45:32;;;;;;;12.37;7.60;;;;;;;;;;5131206;27;20784;-68